sensor_id;sensor_type;location;lat;lon;timestamp;P1;durP1;ratioP1;P2;durP2;ratioP2
71696;SDS011;59528;59.082;37.926;2022-12-18T00:02:11;9.23;;;5.40;;
71696;SDS011;59528;59.082;37.926;2022-12-18T00:04:37;8.20;;;5.20;;
71696;SDS011;59528;59.082;37.926;2022-12-18T00:07:03;7.97;;;5.07;;
71696;SDS011;59528;59.082;37.926;2022-12-18T00:09:28;7.20;;;4.50;;
71696;SDS011;59528;59.082;37.926;2022-12-18T00:11:54;9.57;;;5.73;;
71696;SDS011;59528;59.082;37.926;2022-12-18T00:14:19;6.67;;;4.57;;
71696;SDS011;59528;59.082;37.926;2022-12-18T00:16:45;7.53;;;4.60;;
71696;SDS011;59528;59.082;37.926;2022-12-18T00:19:12;7.30;;;4.67;;
71696;SDS011;59528;59.082;37.926;2022-12-18T00:21:37;8.00;;;4.27;;
71696;SDS011;59528;59.082;37.926;2022-12-18T00:24:04;6.97;;;4.40;;
71696;SDS011;59528;59.082;37.926;2022-12-18T00:26:31;7.80;;;4.23;;
71696;SDS011;59528;59.082;37.926;2022-12-18T00:29:01;5.90;;;4.30;;
71696;SDS011;59528;59.082;37.926;2022-12-18T00:31:28;7.87;;;4.40;;
71696;SDS011;59528;59.082;37.926;2022-12-18T00:33:54;7.17;;;4.17;;
71696;SDS011;59528;59.082;37.926;2022-12-18T00:36:23;5.13;;;3.40;;
71696;SDS011;59528;59.082;37.926;2022-12-18T00:38:52;6.80;;;4.50;;
71696;SDS011;59528;59.082;37.926;2022-12-18T00:41:18;6.03;;;4.10;;
71696;SDS011;59528;59.082;37.926;2022-12-18T00:44:04;7.13;;;4.23;;
71696;SDS011;59528;59.082;37.926;2022-12-18T00:46:30;7.40;;;4.27;;
71696;SDS011;59528;59.082;37.926;2022-12-18T00:48:55;7.13;;;4.23;;
71696;SDS011;59528;59.082;37.926;2022-12-18T00:51:21;5.33;;;3.50;;
71696;SDS011;59528;59.082;37.926;2022-12-18T00:53:47;6.77;;;3.97;;
71696;SDS011;59528;59.082;37.926;2022-12-18T00:56:12;5.23;;;4.03;;
71696;SDS011;59528;59.082;37.926;2022-12-18T00:58:38;7.80;;;4.00;;
71696;SDS011;59528;59.082;37.926;2022-12-18T01:01:04;7.03;;;4.43;;
71696;SDS011;59528;59.082;37.926;2022-12-18T01:03:33;5.30;;;3.73;;
71696;SDS011;59528;59.082;37.926;2022-12-18T01:05:58;6.20;;;3.83;;
71696;SDS011;59528;59.082;37.926;2022-12-18T01:08:24;6.97;;;4.20;;
71696;SDS011;59528;59.082;37.926;2022-12-18T01:10:50;5.77;;;4.00;;
71696;SDS011;59528;59.082;37.926;2022-12-18T01:13:16;7.07;;;3.40;;
71696;SDS011;59528;59.082;37.926;2022-12-18T01:15:48;6.00;;;3.80;;
71696;SDS011;59528;59.082;37.926;2022-12-18T01:18:13;4.63;;;3.40;;
71696;SDS011;59528;59.082;37.926;2022-12-18T01:20:39;6.27;;;3.73;;
71696;SDS011;59528;59.082;37.926;2022-12-18T01:23:04;5.63;;;3.50;;
71696;SDS011;59528;59.082;37.926;2022-12-18T01:25:30;5.07;;;3.93;;
71696;SDS011;59528;59.082;37.926;2022-12-18T01:27:56;5.40;;;3.53;;
71696;SDS011;59528;59.082;37.926;2022-12-18T01:30:24;4.90;;;3.43;;
71696;SDS011;59528;59.082;37.926;2022-12-18T01:32:52;5.37;;;3.50;;
71696;SDS011;59528;59.082;37.926;2022-12-18T01:35:24;6.30;;;4.00;;
71696;SDS011;59528;59.082;37.926;2022-12-18T01:37:53;5.23;;;3.67;;
71696;SDS011;59528;59.082;37.926;2022-12-18T01:40:20;4.87;;;3.23;;
71696;SDS011;59528;59.082;37.926;2022-12-18T01:42:53;4.73;;;3.30;;
71696;SDS011;59528;59.082;37.926;2022-12-18T01:45:23;5.90;;;3.97;;
71696;SDS011;59528;59.082;37.926;2022-12-18T01:52:43;5.00;;;3.30;;
71696;SDS011;59528;59.082;37.926;2022-12-18T01:55:10;5.40;;;3.60;;
71696;SDS011;59528;59.082;37.926;2022-12-18T01:57:37;5.83;;;3.73;;
71696;SDS011;59528;59.082;37.926;2022-12-18T02:00:05;6.03;;;3.27;;
71696;SDS011;59528;59.082;37.926;2022-12-18T02:02:38;5.93;;;3.70;;
71696;SDS011;59528;59.082;37.926;2022-12-18T02:05:04;6.40;;;3.93;;
71696;SDS011;59528;59.082;37.926;2022-12-18T02:10:02;7.00;;;4.07;;
71696;SDS011;59528;59.082;37.926;2022-12-18T02:15:13;6.63;;;3.57;;
71696;SDS011;59528;59.082;37.926;2022-12-18T02:17:42;5.33;;;3.20;;
71696;SDS011;59528;59.082;37.926;2022-12-18T02:27:57;5.70;;;3.47;;
71696;SDS011;59528;59.082;37.926;2022-12-18T02:30:25;5.93;;;3.50;;
71696;SDS011;59528;59.082;37.926;2022-12-18T02:32:52;5.27;;;3.77;;
71696;SDS011;59528;59.082;37.926;2022-12-18T02:35:28;5.33;;;3.50;;
71696;SDS011;59528;59.082;37.926;2022-12-18T02:37:57;5.43;;;3.63;;
71696;SDS011;59528;59.082;37.926;2022-12-18T02:40:24;6.63;;;3.60;;
71696;SDS011;59528;59.082;37.926;2022-12-18T02:42:51;5.60;;;3.43;;
71696;SDS011;59528;59.082;37.926;2022-12-18T02:45:18;6.60;;;3.47;;
71696;SDS011;59528;59.082;37.926;2022-12-18T02:47:45;6.37;;;3.63;;
71696;SDS011;59528;59.082;37.926;2022-12-18T02:55:41;6.67;;;3.70;;
71696;SDS011;59528;59.082;37.926;2022-12-18T03:03:29;5.50;;;3.20;;
71696;SDS011;59528;59.082;37.926;2022-12-18T03:06:00;5.03;;;3.20;;
71696;SDS011;59528;59.082;37.926;2022-12-18T03:08:28;4.97;;;3.37;;
71696;SDS011;59528;59.082;37.926;2022-12-18T03:11:02;6.03;;;3.30;;
71696;SDS011;59528;59.082;37.926;2022-12-18T03:13:35;4.50;;;2.97;;
71696;SDS011;59528;59.082;37.926;2022-12-18T03:16:03;4.93;;;3.07;;
71696;SDS011;59528;59.082;37.926;2022-12-18T03:18:38;4.10;;;3.27;;
71696;SDS011;59528;59.082;37.926;2022-12-18T03:21:06;5.33;;;3.30;;
71696;SDS011;59528;59.082;37.926;2022-12-18T03:23:38;4.57;;;2.90;;
71696;SDS011;59528;59.082;37.926;2022-12-18T03:26:07;4.73;;;3.27;;
71696;SDS011;59528;59.082;37.926;2022-12-18T03:28:38;4.90;;;3.30;;
71696;SDS011;59528;59.082;37.926;2022-12-18T03:31:07;5.93;;;3.30;;
71696;SDS011;59528;59.082;37.926;2022-12-18T03:33:40;4.13;;;3.00;;
71696;SDS011;59528;59.082;37.926;2022-12-18T03:36:07;3.97;;;3.03;;
71696;SDS011;59528;59.082;37.926;2022-12-18T03:38:33;6.47;;;3.53;;
71696;SDS011;59528;59.082;37.926;2022-12-18T03:41:00;3.93;;;2.90;;
71696;SDS011;59528;59.082;37.926;2022-12-18T03:43:43;6.03;;;3.40;;
71696;SDS011;59528;59.082;37.926;2022-12-18T03:48:43;4.37;;;2.83;;
71696;SDS011;59528;59.082;37.926;2022-12-18T03:51:22;4.57;;;3.00;;
71696;SDS011;59528;59.082;37.926;2022-12-18T03:54:00;5.27;;;3.47;;
71696;SDS011;59528;59.082;37.926;2022-12-18T03:56:34;4.93;;;3.33;;
71696;SDS011;59528;59.082;37.926;2022-12-18T03:59:01;4.87;;;3.33;;
71696;SDS011;59528;59.082;37.926;2022-12-18T04:01:34;4.47;;;3.07;;
71696;SDS011;59528;59.082;37.926;2022-12-18T04:04:00;4.17;;;3.10;;
71696;SDS011;59528;59.082;37.926;2022-12-18T04:06:28;5.83;;;3.50;;
71696;SDS011;59528;59.082;37.926;2022-12-18T04:08:56;4.20;;;3.03;;
71696;SDS011;59528;59.082;37.926;2022-12-18T04:11:24;4.80;;;3.13;;
71696;SDS011;59528;59.082;37.926;2022-12-18T04:13:50;4.63;;;3.20;;
71696;SDS011;59528;59.082;37.926;2022-12-18T04:16:28;3.83;;;3.20;;
71696;SDS011;59528;59.082;37.926;2022-12-18T04:18:58;4.30;;;2.80;;
71696;SDS011;59528;59.082;37.926;2022-12-18T04:21:25;5.30;;;3.20;;
71696;SDS011;59528;59.082;37.926;2022-12-18T04:23:52;4.80;;;3.37;;
71696;SDS011;59528;59.082;37.926;2022-12-18T04:26:20;6.00;;;3.50;;
71696;SDS011;59528;59.082;37.926;2022-12-18T04:29:14;4.63;;;2.77;;
71696;SDS011;59528;59.082;37.926;2022-12-18T04:31:40;5.23;;;3.40;;
71696;SDS011;59528;59.082;37.926;2022-12-18T04:34:06;5.20;;;3.10;;
71696;SDS011;59528;59.082;37.926;2022-12-18T04:36:37;4.40;;;3.10;;
71696;SDS011;59528;59.082;37.926;2022-12-18T04:39:03;4.70;;;3.13;;
71696;SDS011;59528;59.082;37.926;2022-12-18T04:41:29;4.63;;;2.80;;
71696;SDS011;59528;59.082;37.926;2022-12-18T04:43:56;4.87;;;3.10;;
71696;SDS011;59528;59.082;37.926;2022-12-18T04:46:21;4.17;;;3.00;;
71696;SDS011;59528;59.082;37.926;2022-12-18T04:48:47;4.50;;;2.90;;
71696;SDS011;59528;59.082;37.926;2022-12-18T04:51:12;5.50;;;3.07;;
71696;SDS011;59528;59.082;37.926;2022-12-18T04:53:38;4.43;;;2.83;;
71696;SDS011;59528;59.082;37.926;2022-12-18T04:58:29;4.50;;;2.60;;
71696;SDS011;59528;59.082;37.926;2022-12-18T05:00:55;5.27;;;3.13;;
71696;SDS011;59528;59.082;37.926;2022-12-18T05:03:20;4.97;;;3.03;;
71696;SDS011;59528;59.082;37.926;2022-12-18T05:05:49;4.50;;;2.97;;
71696;SDS011;59528;59.082;37.926;2022-12-18T05:08:14;4.70;;;3.27;;
71696;SDS011;59528;59.082;37.926;2022-12-18T05:10:40;5.47;;;2.93;;
71696;SDS011;59528;59.082;37.926;2022-12-18T05:13:05;4.53;;;3.33;;
71696;SDS011;59528;59.082;37.926;2022-12-18T05:15:31;4.77;;;3.10;;
71696;SDS011;59528;59.082;37.926;2022-12-18T05:17:57;5.47;;;3.03;;
71696;SDS011;59528;59.082;37.926;2022-12-18T05:20:23;5.20;;;3.40;;
71696;SDS011;59528;59.082;37.926;2022-12-18T05:22:49;6.00;;;2.97;;
71696;SDS011;59528;59.082;37.926;2022-12-18T05:25:15;5.47;;;3.50;;
71696;SDS011;59528;59.082;37.926;2022-12-18T05:27:41;5.17;;;2.90;;
71696;SDS011;59528;59.082;37.926;2022-12-18T05:30:06;4.90;;;2.90;;
71696;SDS011;59528;59.082;37.926;2022-12-18T05:32:32;4.57;;;2.80;;
71696;SDS011;59528;59.082;37.926;2022-12-18T05:34:58;5.10;;;3.13;;
71696;SDS011;59528;59.082;37.926;2022-12-18T05:37:23;4.90;;;3.20;;
71696;SDS011;59528;59.082;37.926;2022-12-18T05:39:49;5.03;;;3.03;;
71696;SDS011;59528;59.082;37.926;2022-12-18T05:42:14;3.63;;;2.40;;
71696;SDS011;59528;59.082;37.926;2022-12-18T05:44:40;4.93;;;2.93;;
71696;SDS011;59528;59.082;37.926;2022-12-18T05:47:06;4.33;;;2.77;;
71696;SDS011;59528;59.082;37.926;2022-12-18T05:49:31;4.10;;;2.90;;
71696;SDS011;59528;59.082;37.926;2022-12-18T05:51:57;4.97;;;3.00;;
71696;SDS011;59528;59.082;37.926;2022-12-18T05:54:28;4.37;;;2.77;;
71696;SDS011;59528;59.082;37.926;2022-12-18T05:56:54;4.60;;;2.77;;
71696;SDS011;59528;59.082;37.926;2022-12-18T05:59:20;4.70;;;2.80;;
71696;SDS011;59528;59.082;37.926;2022-12-18T06:01:45;3.90;;;2.30;;
71696;SDS011;59528;59.082;37.926;2022-12-18T06:04:11;3.13;;;2.40;;
71696;SDS011;59528;59.082;37.926;2022-12-18T06:06:37;4.37;;;2.70;;
71696;SDS011;59528;59.082;37.926;2022-12-18T06:09:03;4.40;;;2.63;;
71696;SDS011;59528;59.082;37.926;2022-12-18T06:11:37;4.63;;;2.70;;
71696;SDS011;59528;59.082;37.926;2022-12-18T06:14:04;4.97;;;3.00;;
71696;SDS011;59528;59.082;37.926;2022-12-18T06:16:31;4.97;;;2.77;;
71696;SDS011;59528;59.082;37.926;2022-12-18T06:18:57;3.20;;;2.27;;
71696;SDS011;59528;59.082;37.926;2022-12-18T06:21:23;5.20;;;2.50;;
71696;SDS011;59528;59.082;37.926;2022-12-18T06:23:49;3.17;;;2.13;;
71696;SDS011;59528;59.082;37.926;2022-12-18T06:26:15;4.07;;;2.87;;
71696;SDS011;59528;59.082;37.926;2022-12-18T06:28:41;4.73;;;2.90;;
71696;SDS011;59528;59.082;37.926;2022-12-18T06:31:07;5.07;;;2.60;;
71696;SDS011;59528;59.082;37.926;2022-12-18T06:33:33;4.53;;;2.73;;
71696;SDS011;59528;59.082;37.926;2022-12-18T06:36:03;3.20;;;2.10;;
71696;SDS011;59528;59.082;37.926;2022-12-18T06:38:29;4.10;;;2.60;;
71696;SDS011;59528;59.082;37.926;2022-12-18T06:40:55;4.10;;;2.30;;
71696;SDS011;59528;59.082;37.926;2022-12-18T06:43:20;3.70;;;2.30;;
71696;SDS011;59528;59.082;37.926;2022-12-18T06:45:46;3.33;;;2.30;;
71696;SDS011;59528;59.082;37.926;2022-12-18T06:48:20;4.97;;;2.40;;
71696;SDS011;59528;59.082;37.926;2022-12-18T06:50:46;4.53;;;2.67;;
71696;SDS011;59528;59.082;37.926;2022-12-18T06:53:29;4.37;;;2.40;;
71696;SDS011;59528;59.082;37.926;2022-12-18T06:56:02;3.57;;;2.30;;
71696;SDS011;59528;59.082;37.926;2022-12-18T06:58:28;3.73;;;2.43;;
71696;SDS011;59528;59.082;37.926;2022-12-18T07:00:53;4.70;;;2.57;;
71696;SDS011;59528;59.082;37.926;2022-12-18T07:03:24;5.73;;;2.53;;
71696;SDS011;59528;59.082;37.926;2022-12-18T07:05:49;5.70;;;2.90;;
71696;SDS011;59528;59.082;37.926;2022-12-18T07:08:15;4.60;;;2.50;;
71696;SDS011;59528;59.082;37.926;2022-12-18T07:10:45;5.00;;;2.47;;
71696;SDS011;59528;59.082;37.926;2022-12-18T07:13:36;4.90;;;2.60;;
71696;SDS011;59528;59.082;37.926;2022-12-18T07:16:09;3.70;;;2.47;;
71696;SDS011;59528;59.082;37.926;2022-12-18T07:18:35;4.20;;;2.60;;
71696;SDS011;59528;59.082;37.926;2022-12-18T07:21:04;3.70;;;2.13;;
71696;SDS011;59528;59.082;37.926;2022-12-18T07:23:31;5.53;;;2.50;;
71696;SDS011;59528;59.082;37.926;2022-12-18T07:26:00;3.73;;;2.33;;
71696;SDS011;59528;59.082;37.926;2022-12-18T07:28:25;4.20;;;2.43;;
71696;SDS011;59528;59.082;37.926;2022-12-18T07:30:51;5.03;;;2.27;;
71696;SDS011;59528;59.082;37.926;2022-12-18T07:33:16;5.00;;;2.43;;
71696;SDS011;59528;59.082;37.926;2022-12-18T07:35:42;3.73;;;2.17;;
71696;SDS011;59528;59.082;37.926;2022-12-18T07:38:08;4.63;;;2.80;;
71696;SDS011;59528;59.082;37.926;2022-12-18T07:40:33;4.07;;;2.40;;
71696;SDS011;59528;59.082;37.926;2022-12-18T07:42:59;5.13;;;2.50;;
71696;SDS011;59528;59.082;37.926;2022-12-18T07:45:25;3.27;;;2.20;;
71696;SDS011;59528;59.082;37.926;2022-12-18T07:47:50;3.53;;;2.23;;
71696;SDS011;59528;59.082;37.926;2022-12-18T07:50:16;5.43;;;2.40;;
71696;SDS011;59528;59.082;37.926;2022-12-18T07:52:41;5.53;;;2.40;;
71696;SDS011;59528;59.082;37.926;2022-12-18T07:55:07;4.17;;;2.30;;
71696;SDS011;59528;59.082;37.926;2022-12-18T07:57:33;4.47;;;2.70;;
71696;SDS011;59528;59.082;37.926;2022-12-18T07:59:59;4.57;;;2.70;;
71696;SDS011;59528;59.082;37.926;2022-12-18T08:02:24;4.63;;;2.33;;
71696;SDS011;59528;59.082;37.926;2022-12-18T08:04:50;5.80;;;2.90;;
71696;SDS011;59528;59.082;37.926;2022-12-18T08:07:16;4.43;;;2.53;;
71696;SDS011;59528;59.082;37.926;2022-12-18T08:09:41;2.70;;;2.00;;
71696;SDS011;59528;59.082;37.926;2022-12-18T08:12:07;3.73;;;2.30;;
71696;SDS011;59528;59.082;37.926;2022-12-18T08:14:32;2.97;;;2.00;;
71696;SDS011;59528;59.082;37.926;2022-12-18T08:16:58;4.37;;;2.63;;
71696;SDS011;59528;59.082;37.926;2022-12-18T08:19:24;4.97;;;2.60;;
71696;SDS011;59528;59.082;37.926;2022-12-18T08:21:49;3.07;;;2.40;;
71696;SDS011;59528;59.082;37.926;2022-12-18T08:24:15;5.70;;;2.77;;
71696;SDS011;59528;59.082;37.926;2022-12-18T08:26:41;4.43;;;2.50;;
71696;SDS011;59528;59.082;37.926;2022-12-18T08:29:07;7.33;;;3.03;;
71696;SDS011;59528;59.082;37.926;2022-12-18T08:31:32;4.03;;;2.50;;
71696;SDS011;59528;59.082;37.926;2022-12-18T08:33:58;4.20;;;2.40;;
71696;SDS011;59528;59.082;37.926;2022-12-18T08:36:24;3.67;;;2.27;;
71696;SDS011;59528;59.082;37.926;2022-12-18T08:38:55;5.00;;;2.90;;
71696;SDS011;59528;59.082;37.926;2022-12-18T08:41:21;4.40;;;2.50;;
71696;SDS011;59528;59.082;37.926;2022-12-18T08:43:47;5.07;;;2.73;;
71696;SDS011;59528;59.082;37.926;2022-12-18T08:46:35;4.73;;;2.67;;
71696;SDS011;59528;59.082;37.926;2022-12-18T08:49:01;4.57;;;2.60;;
71696;SDS011;59528;59.082;37.926;2022-12-18T08:51:27;4.73;;;2.77;;
71696;SDS011;59528;59.082;37.926;2022-12-18T08:53:53;3.70;;;2.60;;
71696;SDS011;59528;59.082;37.926;2022-12-18T08:56:18;4.03;;;2.60;;
71696;SDS011;59528;59.082;37.926;2022-12-18T08:58:44;4.10;;;2.47;;
71696;SDS011;59528;59.082;37.926;2022-12-18T09:01:10;4.60;;;2.67;;
71696;SDS011;59528;59.082;37.926;2022-12-18T09:03:36;4.33;;;2.70;;
71696;SDS011;59528;59.082;37.926;2022-12-18T09:06:02;4.23;;;2.50;;
71696;SDS011;59528;59.082;37.926;2022-12-18T09:08:28;5.43;;;2.60;;
71696;SDS011;59528;59.082;37.926;2022-12-18T09:10:53;4.07;;;2.50;;
71696;SDS011;59528;59.082;37.926;2022-12-18T09:13:20;4.47;;;2.57;;
71696;SDS011;59528;59.082;37.926;2022-12-18T09:15:47;4.63;;;3.07;;
71696;SDS011;59528;59.082;37.926;2022-12-18T09:18:14;4.17;;;2.47;;
71696;SDS011;59528;59.082;37.926;2022-12-18T09:20:43;4.87;;;2.60;;
71696;SDS011;59528;59.082;37.926;2022-12-18T09:23:09;4.57;;;2.50;;
71696;SDS011;59528;59.082;37.926;2022-12-18T09:25:35;4.40;;;2.83;;
71696;SDS011;59528;59.082;37.926;2022-12-18T09:28:02;5.83;;;2.70;;
71696;SDS011;59528;59.082;37.926;2022-12-18T09:30:28;6.33;;;2.50;;
71696;SDS011;59528;59.082;37.926;2022-12-18T09:32:53;5.60;;;2.87;;
71696;SDS011;59528;59.082;37.926;2022-12-18T09:35:19;4.00;;;2.60;;
71696;SDS011;59528;59.082;37.926;2022-12-18T09:37:44;3.67;;;2.40;;
71696;SDS011;59528;59.082;37.926;2022-12-18T09:40:20;3.87;;;2.50;;
71696;SDS011;59528;59.082;37.926;2022-12-18T09:42:48;3.60;;;2.30;;
71696;SDS011;59528;59.082;37.926;2022-12-18T09:45:16;4.77;;;2.37;;
71696;SDS011;59528;59.082;37.926;2022-12-18T09:47:43;2.43;;;1.90;;
71696;SDS011;59528;59.082;37.926;2022-12-18T09:52:49;3.37;;;2.03;;
71696;SDS011;59528;59.082;37.926;2022-12-18T09:55:31;4.13;;;2.20;;
71696;SDS011;59528;59.082;37.926;2022-12-18T09:58:00;3.17;;;2.10;;
71696;SDS011;59528;59.082;37.926;2022-12-18T10:00:27;3.10;;;1.83;;
71696;SDS011;59528;59.082;37.926;2022-12-18T10:02:59;4.20;;;2.00;;
71696;SDS011;59528;59.082;37.926;2022-12-18T10:10:48;2.90;;;1.90;;
71696;SDS011;59528;59.082;37.926;2022-12-18T10:13:18;3.33;;;2.07;;
71696;SDS011;59528;59.082;37.926;2022-12-18T10:20:56;4.40;;;2.20;;
71696;SDS011;59528;59.082;37.926;2022-12-18T10:26:11;3.63;;;2.17;;
71696;SDS011;59528;59.082;37.926;2022-12-18T10:28:40;2.93;;;2.13;;
71696;SDS011;59528;59.082;37.926;2022-12-18T10:31:16;4.10;;;2.10;;
71696;SDS011;59528;59.082;37.926;2022-12-18T10:33:42;4.53;;;2.53;;
71696;SDS011;59528;59.082;37.926;2022-12-18T10:36:13;3.47;;;2.00;;
71696;SDS011;59528;59.082;37.926;2022-12-18T10:38:39;3.63;;;1.90;;
71696;SDS011;59528;59.082;37.926;2022-12-18T10:43:46;3.37;;;2.20;;
71696;SDS011;59528;59.082;37.926;2022-12-18T10:46:13;4.50;;;1.87;;
71696;SDS011;59528;59.082;37.926;2022-12-18T10:51:06;3.33;;;1.90;;
71696;SDS011;59528;59.082;37.926;2022-12-18T10:53:32;4.20;;;2.07;;
71696;SDS011;59528;59.082;37.926;2022-12-18T10:55:59;5.60;;;2.17;;
71696;SDS011;59528;59.082;37.926;2022-12-18T10:58:26;3.90;;;2.00;;
71696;SDS011;59528;59.082;37.926;2022-12-18T11:01:05;4.17;;;2.20;;
71696;SDS011;59528;59.082;37.926;2022-12-18T11:06:04;4.77;;;2.20;;
71696;SDS011;59528;59.082;37.926;2022-12-18T11:08:30;2.77;;;1.63;;
71696;SDS011;59528;59.082;37.926;2022-12-18T11:10:56;2.80;;;1.80;;
71696;SDS011;59528;59.082;37.926;2022-12-18T11:13:23;2.50;;;1.83;;
71696;SDS011;59528;59.082;37.926;2022-12-18T11:15:49;4.53;;;2.30;;
71696;SDS011;59528;59.082;37.926;2022-12-18T11:18:22;4.33;;;2.27;;
71696;SDS011;59528;59.082;37.926;2022-12-18T11:20:51;4.17;;;2.17;;
71696;SDS011;59528;59.082;37.926;2022-12-18T11:23:17;3.73;;;2.17;;
71696;SDS011;59528;59.082;37.926;2022-12-18T11:25:50;3.03;;;1.77;;
71696;SDS011;59528;59.082;37.926;2022-12-18T11:28:27;3.43;;;2.30;;
71696;SDS011;59528;59.082;37.926;2022-12-18T11:33:39;2.97;;;1.80;;
71696;SDS011;59528;59.082;37.926;2022-12-18T11:36:07;3.50;;;1.67;;
71696;SDS011;59528;59.082;37.926;2022-12-18T11:38:37;2.70;;;1.80;;
71696;SDS011;59528;59.082;37.926;2022-12-18T11:46:07;4.73;;;2.70;;
71696;SDS011;59528;59.082;37.926;2022-12-18T11:48:38;4.13;;;2.23;;
71696;SDS011;59528;59.082;37.926;2022-12-18T11:51:14;2.80;;;1.90;;
71696;SDS011;59528;59.082;37.926;2022-12-18T11:53:43;3.97;;;2.27;;
71696;SDS011;59528;59.082;37.926;2022-12-18T11:59:00;3.17;;;1.70;;
71696;SDS011;59528;59.082;37.926;2022-12-18T12:09:35;3.23;;;1.87;;
71696;SDS011;59528;59.082;37.926;2022-12-18T12:14:54;3.67;;;2.40;;
71696;SDS011;59528;59.082;37.926;2022-12-18T12:17:35;3.83;;;2.40;;
71696;SDS011;59528;59.082;37.926;2022-12-18T12:23:19;4.93;;;2.27;;
71696;SDS011;59528;59.082;37.926;2022-12-18T12:30:42;4.57;;;2.33;;
71696;SDS011;59528;59.082;37.926;2022-12-18T12:33:15;5.77;;;2.70;;
71696;SDS011;59528;59.082;37.926;2022-12-18T12:38:19;4.93;;;2.50;;
71696;SDS011;59528;59.082;37.926;2022-12-18T12:40:51;6.20;;;2.83;;
71696;SDS011;59528;59.082;37.926;2022-12-18T12:51:21;4.10;;;2.57;;
71696;SDS011;59528;59.082;37.926;2022-12-18T12:53:47;6.20;;;2.70;;
71696;SDS011;59528;59.082;37.926;2022-12-18T12:56:14;5.10;;;2.57;;
71696;SDS011;59528;59.082;37.926;2022-12-18T12:58:58;5.03;;;2.90;;
71696;SDS011;59528;59.082;37.926;2022-12-18T13:06:58;4.70;;;2.60;;
71696;SDS011;59528;59.082;37.926;2022-12-18T13:09:29;4.63;;;2.83;;
71696;SDS011;59528;59.082;37.926;2022-12-18T13:11:55;5.40;;;2.90;;
71696;SDS011;59528;59.082;37.926;2022-12-18T13:14:45;4.20;;;2.53;;
71696;SDS011;59528;59.082;37.926;2022-12-18T13:19:52;5.83;;;2.53;;
71696;SDS011;59528;59.082;37.926;2022-12-18T13:22:33;5.63;;;2.83;;
71696;SDS011;59528;59.082;37.926;2022-12-18T13:24:59;5.00;;;2.87;;
71696;SDS011;59528;59.082;37.926;2022-12-18T13:35:41;6.17;;;3.03;;
71696;SDS011;59528;59.082;37.926;2022-12-18T13:48:22;5.03;;;2.70;;
71696;SDS011;59528;59.082;37.926;2022-12-18T13:53:33;5.03;;;2.97;;
71696;SDS011;59528;59.082;37.926;2022-12-18T13:56:00;5.13;;;2.93;;
71696;SDS011;59528;59.082;37.926;2022-12-18T13:58:27;8.10;;;3.37;;
71696;SDS011;59528;59.082;37.926;2022-12-18T14:00:53;6.13;;;3.57;;
71696;SDS011;59528;59.082;37.926;2022-12-18T14:03:20;7.00;;;3.13;;
71696;SDS011;59528;59.082;37.926;2022-12-18T14:05:46;7.83;;;3.33;;
71696;SDS011;59528;59.082;37.926;2022-12-18T14:08:17;6.67;;;3.87;;
71696;SDS011;59528;59.082;37.926;2022-12-18T14:10:44;6.73;;;3.60;;
71696;SDS011;59528;59.082;37.926;2022-12-18T14:13:24;7.63;;;3.50;;
71696;SDS011;59528;59.082;37.926;2022-12-18T14:15:52;10.33;;;3.87;;
71696;SDS011;59528;59.082;37.926;2022-12-18T14:20:56;7.13;;;3.80;;
71696;SDS011;59528;59.082;37.926;2022-12-18T14:23:30;6.70;;;3.33;;
71696;SDS011;59528;59.082;37.926;2022-12-18T14:25:56;8.07;;;3.57;;
71696;SDS011;59528;59.082;37.926;2022-12-18T14:28:22;5.27;;;3.03;;
71696;SDS011;59528;59.082;37.926;2022-12-18T14:30:49;6.17;;;3.90;;
71696;SDS011;59528;59.082;37.926;2022-12-18T14:33:16;8.73;;;3.60;;
71696;SDS011;59528;59.082;37.926;2022-12-18T14:35:57;5.77;;;3.23;;
71696;SDS011;59528;59.082;37.926;2022-12-18T14:40:52;6.53;;;3.67;;
71696;SDS011;59528;59.082;37.926;2022-12-18T14:43:18;6.20;;;3.07;;
71696;SDS011;59528;59.082;37.926;2022-12-18T14:45:43;6.23;;;3.17;;
71696;SDS011;59528;59.082;37.926;2022-12-18T14:50:42;8.30;;;3.87;;
71696;SDS011;59528;59.082;37.926;2022-12-18T14:53:20;6.73;;;3.37;;
71696;SDS011;59528;59.082;37.926;2022-12-18T14:55:47;6.07;;;3.47;;
71696;SDS011;59528;59.082;37.926;2022-12-18T14:58:14;5.83;;;3.43;;
71696;SDS011;59528;59.082;37.926;2022-12-18T15:00:41;5.43;;;3.17;;
71696;SDS011;59528;59.082;37.926;2022-12-18T15:03:07;7.00;;;3.40;;
71696;SDS011;59528;59.082;37.926;2022-12-18T15:05:33;4.30;;;2.90;;
71696;SDS011;59528;59.082;37.926;2022-12-18T15:08:00;5.47;;;3.17;;
71696;SDS011;59528;59.082;37.926;2022-12-18T15:10:26;7.83;;;3.70;;
71696;SDS011;59528;59.082;37.926;2022-12-18T15:18:03;7.33;;;3.20;;
71696;SDS011;59528;59.082;37.926;2022-12-18T15:23:26;5.40;;;3.10;;
71696;SDS011;59528;59.082;37.926;2022-12-18T15:25:59;5.43;;;2.60;;
71696;SDS011;59528;59.082;37.926;2022-12-18T15:28:36;6.07;;;2.77;;
71696;SDS011;59528;59.082;37.926;2022-12-18T15:31:05;6.57;;;3.23;;
71696;SDS011;59528;59.082;37.926;2022-12-18T15:33:35;4.93;;;2.73;;
71696;SDS011;59528;59.082;37.926;2022-12-18T15:36:08;5.30;;;3.20;;
71696;SDS011;59528;59.082;37.926;2022-12-18T15:38:34;4.97;;;2.80;;
71696;SDS011;59528;59.082;37.926;2022-12-18T15:41:00;5.60;;;2.77;;
71696;SDS011;59528;59.082;37.926;2022-12-18T15:43:26;6.40;;;3.27;;
71696;SDS011;59528;59.082;37.926;2022-12-18T15:46:03;6.87;;;3.83;;
71696;SDS011;59528;59.082;37.926;2022-12-18T15:48:30;5.53;;;2.60;;
71696;SDS011;59528;59.082;37.926;2022-12-18T15:50:57;6.20;;;2.90;;
71696;SDS011;59528;59.082;37.926;2022-12-18T15:53:32;5.80;;;2.80;;
71696;SDS011;59528;59.082;37.926;2022-12-18T15:55:59;5.00;;;2.97;;
71696;SDS011;59528;59.082;37.926;2022-12-18T15:58:43;5.47;;;3.53;;
71696;SDS011;59528;59.082;37.926;2022-12-18T16:01:09;7.23;;;3.10;;
71696;SDS011;59528;59.082;37.926;2022-12-18T16:03:35;5.97;;;3.40;;
71696;SDS011;59528;59.082;37.926;2022-12-18T16:06:01;7.30;;;3.50;;
71696;SDS011;59528;59.082;37.926;2022-12-18T16:08:30;8.33;;;3.30;;
71696;SDS011;59528;59.082;37.926;2022-12-18T16:10:59;7.93;;;3.43;;
71696;SDS011;59528;59.082;37.926;2022-12-18T16:13:25;9.90;;;3.93;;
71696;SDS011;59528;59.082;37.926;2022-12-18T16:15:50;10.27;;;4.03;;
71696;SDS011;59528;59.082;37.926;2022-12-18T16:18:16;9.90;;;4.30;;
71696;SDS011;59528;59.082;37.926;2022-12-18T16:20:41;10.60;;;4.37;;
71696;SDS011;59528;59.082;37.926;2022-12-18T16:23:07;15.13;;;6.17;;
71696;SDS011;59528;59.082;37.926;2022-12-18T16:25:33;20.57;;;8.10;;
71696;SDS011;59528;59.082;37.926;2022-12-18T16:27:58;25.53;;;9.70;;
71696;SDS011;59528;59.082;37.926;2022-12-18T16:30:25;27.60;;;11.43;;
71696;SDS011;59528;59.082;37.926;2022-12-18T16:32:56;34.07;;;13.57;;
71696;SDS011;59528;59.082;37.926;2022-12-18T16:35:22;37.73;;;14.37;;
71696;SDS011;59528;59.082;37.926;2022-12-18T16:37:48;36.53;;;14.17;;
71696;SDS011;59528;59.082;37.926;2022-12-18T16:40:14;37.80;;;14.63;;
71696;SDS011;59528;59.082;37.926;2022-12-18T16:42:41;36.47;;;13.57;;
71696;SDS011;59528;59.082;37.926;2022-12-18T16:45:08;32.20;;;12.70;;
71696;SDS011;59528;59.082;37.926;2022-12-18T16:47:34;31.73;;;11.43;;
71696;SDS011;59528;59.082;37.926;2022-12-18T16:50:03;27.87;;;11.03;;
71696;SDS011;59528;59.082;37.926;2022-12-18T16:52:29;28.23;;;10.43;;
71696;SDS011;59528;59.082;37.926;2022-12-18T16:54:57;28.50;;;9.63;;
71696;SDS011;59528;59.082;37.926;2022-12-18T16:57:23;25.03;;;9.20;;
71696;SDS011;59528;59.082;37.926;2022-12-18T16:59:48;23.43;;;8.23;;
71696;SDS011;59528;59.082;37.926;2022-12-18T17:04:43;31.10;;;9.90;;